Time;durP1;ratioP1;P1;durP2;ratioP2;P2;SDS_P1;SDS_P2;PMS_P1;PMS_P2;Temp;Humidity;BMP_temperature;BMP_pressure;BME280_temperature;BME280_humidity;BME280_pressure;Samples;Min_cycle;Max_cycle;Signal;HPM_P1;HPM_P2
2022/08/27 00:00:22;;;;;;;18.90;7.95;;;;;;;23.15;78.38;98796.88;5111777;28;20407;-63
2022/08/27 00:02:50;;;;;;;14.98;7.47;;;;;;;23.13;78.45;98790.91;5111738;28;20194;-63
2022/08/27 00:05:19;;;;;;;15.63;6.88;;;;;;;23.16;78.61;98798.53;5111762;28;20198;-63
2022/08/27 00:07:47;;;;;;;20.33;7.25;;;;;;;23.09;78.43;98789.50;5111686;28;20234;-63
2022/08/27 00:10:16;;;;;;;15.77;9.00;;;;;;;23.07;78.50;98790.63;5111352;28;20698;-57
2022/08/27 00:12:43;;;;;;;13.80;7.15;;;;;;;23.16;78.09;98793.25;5111585;28;20198;-56
2022/08/27 00:15:11;;;;;;;18.38;8.93;;;;;;;23.13;78.04;98792.72;5111418;28;20228;-56
2022/08/27 00:17:39;;;;;;;20.20;8.73;;;;;;;23.03;78.26;98782.09;5110094;28;21615;-56
2022/08/27 00:20:08;;;;;;;10.68;7.85;;;;;;;23.08;78.32;98794.94;5111282;28;20190;-57
2022/08/27 00:22:36;;;;;;;15.20;7.28;;;;;;;23.16;78.28;98795.06;5111282;28;20285;-57
2022/08/27 00:25:04;;;;;;;21.02;7.63;;;;;;;23.02;78.13;98780.47;5111177;28;20313;-57
2022/08/27 00:27:31;;;;;;;20.08;7.72;;;;;;;23.13;78.15;98798.84;5111239;28;20194;-62
2022/08/27 00:29:58;;;;;;;17.88;7.57;;;;;;;23.06;77.92;98805.66;5111127;28;20198;-56
2022/08/27 00:32:24;;;;;;;20.48;7.47;;;;;;;23.11;78.05;98799.97;5111188;28;20199;-56
2022/08/27 00:34:52;;;;;;;18.48;7.50;;;;;;;23.12;78.23;98791.88;5111155;28;20606;-63
2022/08/27 00:37:19;;;;;;;13.85;7.38;;;;;;;23.11;78.22;98803.44;5110989;28;20198;-58
2022/08/27 00:39:47;;;;;;;17.83;7.40;;;;;;;23.03;78.60;98802.44;5111286;28;20202;-57
2022/08/27 00:42:14;;;;;;;12.38;7.35;;;;;;;23.03;78.89;98802.44;5111201;28;20204;-58
2022/08/27 00:44:42;;;;;;;9.70;7.30;;;;;;;22.98;78.18;98810.81;5110332;28;20209;-58
2022/08/27 00:47:13;;;;;;;14.82;7.13;;;;;;;22.97;78.82;98813.59;5111010;28;20592;-56
2022/08/27 00:49:45;;;;;;;14.63;7.05;;;;;;;22.95;78.67;98811.09;5110653;28;20644;-56
2022/08/27 00:52:18;;;;;;;14.40;6.97;;;;;;;22.95;78.64;98815.56;5110732;28;20242;-57
2022/08/27 00:54:48;;;;;;;15.93;7.03;;;;;;;22.88;78.73;98798.56;5110809;28;20334;-56
2022/08/27 00:57:15;;;;;;;13.50;7.28;;;;;;;22.86;79.49;98819.88;5110631;28;20252;-64
2022/08/27 00:59:44;;;;;;;15.23;7.38;;;;;;;22.79;79.78;98810.81;5110908;28;20201;-64
2022/08/27 01:02:20;;;;;;;17.55;7.40;;;;;;;22.69;80.50;98807.28;5110577;28;20677;-63
2022/08/27 01:04:51;;;;;;;20.63;7.30;;;;;;;22.61;82.04;98807.97;5110248;28;25147;-63
2022/08/27 01:07:19;;;;;;;13.45;6.68;;;;;;;22.51;82.34;98785.13;5109177;28;25103;-64
2022/08/27 01:09:49;;;;;;;13.98;7.57;;;;;;;22.58;82.65;98802.94;5110239;28;20211;-63
2022/08/27 01:12:16;;;;;;;16.42;7.28;;;;;;;22.61;81.79;98797.41;5110047;28;25073;-63
2022/08/27 01:14:45;;;;;;;13.70;7.60;;;;;;;22.62;81.89;98806.16;5110264;28;20169;-64
2022/08/27 01:17:14;;;;;;;15.00;7.88;;;;;;;22.65;81.75;98797.97;5110171;28;20292;-62
2022/08/27 01:19:46;;;;;;;18.33;7.78;;;;;;;22.62;81.89;98798.22;5110050;28;20193;-64
2022/08/27 01:22:25;;;;;;;19.67;6.80;;;;;;;22.56;81.24;98797.00;5109766;28;20582;-64
2022/08/27 01:24:56;;;;;;;12.52;7.00;;;;;;;22.47;82.27;98805.72;5110356;28;20198;-64
2022/08/27 01:27:26;;;;;;;14.75;7.45;;;;;;;22.32;82.33;98778.00;5110150;28;20195;-64
2022/08/27 01:29:54;;;;;;;19.88;7.22;;;;;;;22.51;81.78;98803.66;5110152;28;20195;-64
2022/08/27 01:32:24;;;;;;;21.50;7.80;;;;;;;22.40;81.83;98800.16;5110247;28;20729;-64
2022/08/27 01:34:51;;;;;;;17.85;7.68;;;;;;;22.26;82.49;98802.34;5110011;28;20213;-63
2022/08/27 01:37:20;;;;;;;20.60;7.38;;;;;;;22.23;83.04;98803.47;5110118;28;20213;-63
2022/08/27 01:39:47;;;;;;;18.65;7.60;;;;;;;22.22;83.30;98801.78;5110044;28;20717;-63
2022/08/27 01:42:19;;;;;;;11.23;7.38;;;;;;;22.26;83.03;98802.34;5110533;28;20202;-62
2022/08/27 01:44:48;;;;;;;13.48;8.10;;;;;;;22.30;82.62;98804.59;5110229;28;20194;-62
2022/08/27 01:47:16;;;;;;;14.18;7.00;;;;;;;22.32;81.13;98799.16;5110138;28;20300;-62
2022/08/27 01:49:43;;;;;;;12.57;7.15;;;;;;;22.26;81.31;98803.16;5109802;28;20199;-62
2022/08/27 01:52:13;;;;;;;16.45;6.80;;;;;;;22.30;80.57;98807.22;5109956;28;20200;-62
2022/08/27 01:54:39;;;;;;;20.40;7.30;;;;;;;22.36;80.42;98808.47;5109709;28;20590;-62
2022/08/27 01:57:07;;;;;;;11.88;6.93;;;;;;;22.37;80.46;98802.22;5109968;28;20225;-62
2022/08/27 01:59:35;;;;;;;13.27;6.70;;;;;;;22.37;80.56;98805.69;5109925;28;20589;-62
2022/08/27 02:02:02;;;;;;;12.40;7.40;;;;;;;22.41;80.46;98807.13;5109970;28;20213;-56
2022/08/27 02:04:30;;;;;;;18.40;7.32;;;;;;;22.32;80.18;98786.78;5110012;28;20195;-55
2022/08/27 02:06:58;;;;;;;18.90;7.10;;;;;;;22.34;80.24;98799.88;5109852;28;20234;-56
2022/08/27 02:09:26;;;;;;;12.35;7.28;;;;;;;22.29;80.96;98800.25;5109673;28;20203;-55
2022/08/27 02:11:53;;;;;;;14.10;6.90;;;;;;;22.09;81.81;98795.91;5109707;28;20201;-56
2022/08/27 02:14:21;;;;;;;11.00;6.80;;;;;;;22.08;82.77;98799.50;5109751;28;20195;-55
2022/08/27 02:16:50;;;;;;;15.15;7.53;;;;;;;21.98;83.45;98802.13;5109684;28;20279;-55
2022/08/27 02:19:18;;;;;;;17.80;7.43;;;;;;;21.97;83.72;98802.22;5109555;28;20226;-55
2022/08/27 02:21:45;;;;;;;19.25;7.28;;;;;;;21.94;83.67;98797.19;5109569;28;20217;-55
2022/08/27 02:24:12;;;;;;;12.70;7.25;;;;;;;21.93;83.69;98796.34;5109995;28;20195;-54
2022/08/27 02:26:39;;;;;;;13.52;7.32;;;;;;;21.81;84.72;98797.41;5109848;28;20190;-54
2022/08/27 02:29:06;;;;;;;9.25;7.07;;;;;;;21.86;84.55;98789.94;5109576;28;20205;-63
2022/08/27 02:31:33;;;;;;;23.92;7.20;;;;;;;21.89;84.27;98791.50;5110239;28;20626;-62
2022/08/27 02:34:03;;;;;;;16.60;7.72;;;;;;;21.81;84.33;98788.66;5111090;28;20237;-62
2022/08/27 02:36:30;;;;;;;13.77;7.28;;;;;;;21.87;84.74;98804.81;5113694;28;20658;-62
2022/08/27 02:38:56;;;;;;;22.67;7.93;;;;;;;21.94;84.58;98798.03;5113261;28;20190;-56
2022/08/27 02:41:23;;;;;;;15.00;7.32;;;;;;;21.91;84.59;98800.09;5113160;28;20201;-56
2022/08/27 02:43:50;;;;;;;16.60;8.10;;;;;;;21.90;84.25;98801.91;5113648;28;20237;-55
2022/08/27 02:46:17;;;;;;;12.60;6.88;;;;;;;21.89;84.25;98807.34;5113390;28;20251;-60
2022/08/27 02:48:44;;;;;;;23.10;8.18;;;;;;;21.88;84.38;98810.94;5112692;28;20197;-54
2022/08/27 02:51:12;;;;;;;7.93;6.88;;;;;;;21.81;84.87;98802.69;5113381;28;20190;-60
2022/08/27 02:53:39;;;;;;;10.98;7.78;;;;;;;21.70;85.26;98793.06;5113040;28;20194;-59
2022/08/27 02:56:07;;;;;;;15.90;7.35;;;;;;;21.78;85.14;98795.06;5112949;28;20228;-59
2022/08/27 02:58:34;;;;;;;15.80;7.78;;;;;;;21.77;85.30;98795.19;5113621;28;20666;-59
2022/08/27 03:01:01;;;;;;;19.30;7.93;;;;;;;21.71;85.15;98797.38;5113024;28;20202;-59
2022/08/27 03:03:29;;;;;;;12.52;7.43;;;;;;;21.65;85.71;98789.16;5112675;28;20232;-59
2022/08/27 03:05:57;;;;;;;11.23;7.80;;;;;;;21.59;86.36;98781.75;5112754;28;20213;-59
2022/08/27 03:08:26;;;;;;;17.00;8.15;;;;;;;21.54;86.86;98784.78;5112785;28;20195;-59
2022/08/27 03:10:54;;;;;;;17.70;8.77;;;;;;;21.54;86.45;98787.44;5112989;28;20746;-59
2022/08/27 03:13:21;;;;;;;25.45;8.48;;;;;;;21.50;86.37;98793.94;5112865;28;20271;-59
2022/08/27 03:15:48;;;;;;;14.60;8.77;;;;;;;21.51;86.02;98794.75;5112517;28;20612;-59
2022/08/27 03:18:17;;;;;;;16.98;9.00;;;;;;;21.47;85.73;98775.69;5112373;28;20329;-59
2022/08/27 03:20:48;;;;;;;18.35;8.38;;;;;;;21.56;85.42;98788.09;5112522;28;20206;-59
2022/08/27 03:23:15;;;;;;;14.98;8.63;;;;;;;21.57;85.46;98791.59;5112123;28;20198;-59
2022/08/27 03:25:46;;;;;;;13.93;8.40;;;;;;;21.59;85.44;98798.41;5112142;28;20490;-58
2022/08/27 03:28:15;;;;;;;19.13;8.23;;;;;;;21.61;84.35;98801.78;5112296;28;20242;-54
2022/08/27 03:30:44;;;;;;;14.85;8.20;;;;;;;21.57;85.42;98805.63;5112186;28;20226;-54
2022/08/27 03:33:12;;;;;;;21.60;9.07;;;;;;;21.58;85.14;98802.03;5112342;28;20195;-54
2022/08/27 03:35:39;;;;;;;14.75;8.05;;;;;;;21.58;85.38;98812.59;5112288;28;20234;-54
2022/08/27 03:38:06;;;;;;;14.05;8.07;;;;;;;21.59;84.62;98808.97;5112074;28;20202;-54
2022/08/27 03:40:33;;;;;;;17.30;8.20;;;;;;;21.60;84.62;98802.75;5111956;28;20212;-53
2022/08/27 03:43:02;;;;;;;16.23;8.00;;;;;;;21.66;84.14;98810.16;5110770;28;20666;-55
2022/08/27 03:45:30;;;;;;;16.20;7.90;;;;;;;21.64;84.48;98814.72;5110667;28;20802;-55
2022/08/27 03:47:57;;;;;;;19.40;8.27;;;;;;;21.50;84.40;98807.13;5111689;28;20289;-55
2022/08/27 03:50:24;;;;;;;14.18;9.10;;;;;;;21.59;84.22;98814.25;5108398;28;20621;-54
2022/08/27 03:52:51;;;;;;;15.35;8.25;;;;;;;21.65;84.11;98810.28;5109786;28;20201;-62
2022/08/27 03:55:18;;;;;;;20.10;8.77;;;;;;;21.68;83.34;98815.28;5110062;28;20198;-63
2022/08/27 03:57:45;;;;;;;17.23;7.90;;;;;;;21.74;82.67;98823.53;5109887;28;20368;-62
2022/08/27 04:00:14;;;;;;;22.70;7.63;;;;;;;21.81;81.85;98823.84;5107409;28;20602;-63
2022/08/27 04:02:41;;;;;;;12.07;7.93;;;;;;;21.75;81.79;98829.66;5109921;28;20273;-62
2022/08/27 04:05:11;;;;;;;16.67;7.25;;;;;;;21.77;81.89;98822.44;5106849;28;20187;-63
2022/08/27 04:07:38;;;;;;;13.70;7.25;;;;;;;21.88;80.98;98825.00;5109551;28;20194;-63
2022/08/27 04:10:08;;;;;;;17.35;8.50;;;;;;;21.86;81.03;98831.38;5104197;28;20631;-63
2022/08/27 04:12:35;;;;;;;12.73;6.85;;;;;;;21.92;80.76;98826.38;5102703;28;20294;-62
2022/08/27 04:15:02;;;;;;;17.75;7.93;;;;;;;22.00;80.39;98833.69;5109671;28;20187;-63
2022/08/27 04:17:30;;;;;;;10.95;7.18;;;;;;;22.16;79.75;98839.31;5110261;28;20228;-63
2022/08/27 04:19:58;;;;;;;16.40;7.38;;;;;;;22.17;79.35;98834.88;5109368;28;20194;-56
2022/08/27 04:22:26;;;;;;;16.08;7.47;;;;;;;22.38;78.89;98840.91;5107076;28;20230;-56
2022/08/27 04:24:53;;;;;;;14.35;7.15;;;;;;;22.67;77.66;98843.63;5109845;28;20199;-56
2022/08/27 04:27:20;;;;;;;18.50;7.88;;;;;;;22.85;75.98;98823.50;5111069;28;20689;-56
2022/08/27 04:29:48;;;;;;;17.05;8.60;;;;;;;23.42;74.08;98849.09;5111391;28;20659;-56
2022/08/27 04:32:15;;;;;;;13.52;8.60;;;;;;;23.95;71.43;98839.81;5111037;28;20271;-55
2022/08/27 04:34:44;;;;;;;20.95;10.05;;;;;;;24.74;68.02;98854.22;5110708;28;20298;-55
2022/08/27 04:37:11;;;;;;;12.38;8.07;;;;;;;25.26;66.04;98863.25;5110510;28;20761;-58
2022/08/27 04:39:38;;;;;;;14.48;7.55;;;;;;;26.03;63.31;98851.00;5111177;28;20198;-58
2022/08/27 04:42:05;;;;;;;15.93;7.82;;;;;;;26.74;60.76;98855.97;5110950;28;20206;-58
2022/08/27 04:44:33;;;;;;;9.38;7.15;;;;;;;27.41;57.81;98846.09;5111069;28;20201;-57
2022/08/27 04:47:02;;;;;;;12.38;7.32;;;;;;;28.05;56.30;98871.00;5110934;28;20310;-59
2022/08/27 04:49:30;;;;;;;17.08;7.15;;;;;;;28.58;53.36;98873.00;5110771;28;20233;-58
2022/08/27 04:51:58;;;;;;;18.90;8.27;;;;;;;28.59;53.46;98858.63;5110985;28;20277;-60
2022/08/27 04:54:25;;;;;;;15.32;8.30;;;;;;;28.84;52.60;98881.56;5110887;28;20583;-57
2022/08/27 04:56:52;;;;;;;8.75;7.93;;;;;;;28.77;52.36;98885.94;5110232;28;20223;-56
2022/08/27 04:59:19;;;;;;;10.85;6.97;;;;;;;28.03;54.42;98887.19;5110497;28;20674;-56
2022/08/27 05:01:46;;;;;;;10.13;8.15;;;;;;;26.97;56.53;98861.56;5110553;28;20195;-56
2022/08/27 05:04:17;;;;;;;13.45;8.35;;;;;;;25.95;60.40;98874.91;5110537;28;20669;-59
2022/08/27 05:06:45;;;;;;;18.02;8.10;;;;;;;25.02;64.21;98876.28;5110476;28;20202;-58
2022/08/27 05:09:15;;;;;;;15.80;12.40;;;;;;;24.70;66.04;98882.06;5110436;28;20183;-58
2022/08/27 05:11:42;;;;;;;16.05;9.48;;;;;;;24.36;67.92;98881.00;5110029;28;20191;-63
2022/08/27 05:14:12;;;;;;;10.95;9.07;;;;;;;24.04;69.45;98878.72;5109939;28;20191;-63
2022/08/27 05:16:39;;;;;;;14.00;8.00;;;;;;;23.69;71.67;98879.38;5107284;28;20272;-63
2022/08/27 05:19:09;;;;;;;9.60;7.35;;;;;;;23.60;72.04;98881.03;5109672;28;20224;-63
2022/08/27 05:21:38;;;;;;;15.07;6.72;;;;;;;23.45;73.23;98879.78;5109652;28;20192;-63
2022/08/27 05:24:07;;;;;;;18.65;7.53;;;;;;;23.28;74.39;98885.75;5109622;28;20187;-63
2022/08/27 05:26:36;;;;;;;18.17;7.95;;;;;;;23.30;74.67;98881.19;5109628;28;20298;-63
2022/08/27 05:29:05;;;;;;;17.23;7.72;;;;;;;23.26;75.08;98885.06;5109435;28;20198;-63
2022/08/27 05:31:32;;;;;;;15.52;8.77;;;;;;;23.29;75.22;98888.28;5109971;28;20202;-63
2022/08/27 05:34:00;;;;;;;18.67;7.78;;;;;;;23.13;76.11;98882.72;5110069;28;20205;-57
2022/08/27 05:36:30;;;;;;;12.68;7.78;;;;;;;23.10;76.40;98894.41;5109520;28;20218;-63
2022/08/27 05:38:58;;;;;;;12.40;7.70;;;;;;;23.16;76.71;98893.84;5106796;28;20194;-62
2022/08/27 05:41:28;;;;;;;21.23;7.88;;;;;;;23.37;76.56;98901.66;5110200;28;20285;-63
2022/08/27 05:43:58;;;;;;;17.80;7.82;;;;;;;23.68;74.83;98894.44;5110303;28;20202;-63
2022/08/27 05:46:27;;;;;;;11.80;7.35;;;;;;;23.78;74.41;98895.25;5109888;28;20205;-63
2022/08/27 05:48:57;;;;;;;12.52;6.88;;;;;;;23.83;74.34;98890.34;5109947;28;20279;-63
2022/08/27 05:51:27;;;;;;;15.02;7.40;;;;;;;23.84;74.51;98892.00;5109807;28;20230;-62
2022/08/27 05:53:58;;;;;;;17.35;8.00;;;;;;;24.31;72.81;98873.47;5109845;28;20198;-64
2022/08/27 05:56:27;;;;;;;8.50;7.43;;;;;;;25.00;69.72;98883.56;5109631;28;20253;-65
2022/08/27 06:01:44;;;;;;;24.08;9.38;;;;;;;26.63;64.59;98890.88;5110095;28;20198;-57
2022/08/27 06:04:11;;;;;;;15.52;9.00;;;;;;;27.86;60.19;98903.41;5109930;28;20226;-57
2022/08/27 06:06:40;;;;;;;14.73;8.48;;;;;;;29.19;56.37;98909.59;5109639;28;20186;-58
2022/08/27 06:09:08;;;;;;;17.60;8.52;;;;;;;30.33;52.30;98905.94;5111615;28;20226;-57
2022/08/27 06:11:36;;;;;;;14.27;8.00;;;;;;;31.52;49.36;98907.31;5113988;28;20570;-57
2022/08/27 06:14:05;;;;;;;14.43;8.48;;;;;;;32.28;47.07;98917.25;5113933;28;20631;-57
2022/08/27 06:16:32;;;;;;;12.18;8.40;;;;;;;33.02;45.49;98913.91;5113750;28;20780;-58
2022/08/27 06:18:59;;;;;;;14.40;7.65;;;;;;;34.05;42.32;98917.97;5113381;28;20269;-57
2022/08/27 06:21:26;;;;;;;17.65;7.65;;;;;;;34.53;41.29;98921.22;5113555;28;20195;-58
2022/08/27 06:23:54;;;;;;;18.88;7.90;;;;;;;35.55;39.22;98925.72;5113878;28;20260;-58
2022/08/27 06:26:23;;;;;;;16.45;7.30;;;;;;;36.71;36.97;98934.00;5113626;28;20190;-57
2022/08/27 06:28:50;;;;;;;10.45;6.93;;;;;;;36.66;37.00;98929.25;5113461;28;20212;-58
2022/08/27 06:31:21;;;;;;;22.20;7.88;;;;;;;37.25;35.82;98933.09;5113610;28;20275;-58
2022/08/27 06:33:49;;;;;;;16.08;7.00;;;;;;;37.63;35.38;98931.91;5113427;28;20198;-58
2022/08/27 06:36:18;;;;;;;13.95;7.40;;;;;;;37.40;35.18;98928.06;5113384;28;20244;-59
2022/08/27 06:38:46;;;;;;;21.73;7.18;;;;;;;37.64;34.64;98934.41;5113697;28;20611;-58
2022/08/27 06:41:15;;;;;;;16.27;6.95;;;;;;;37.56;35.05;98920.34;5113307;28;20209;-58
2022/08/27 06:43:43;;;;;;;12.07;6.43;;;;;;;38.17;33.59;98940.81;5113154;28;20277;-59
2022/08/27 06:46:13;;;;;;;14.32;8.75;;;;;;;38.16;33.72;98940.00;5112962;28;20768;-58
2022/08/27 06:48:43;;;;;;;18.90;6.82;;;;;;;38.68;32.07;98938.19;5112861;28;20201;-58
2022/08/27 06:51:12;;;;;;;13.07;6.97;;;;;;;39.27;31.18;98946.97;5113310;28;20623;-57
2022/08/27 06:53:40;;;;;;;16.73;6.60;;;;;;;39.41;30.92;98932.03;5113078;28;20198;-57
2022/08/27 06:56:08;;;;;;;12.65;6.72;;;;;;;39.02;31.20;98938.34;5112629;28;20585;-58
2022/08/27 06:58:35;;;;;;;14.23;6.47;;;;;;;39.49;30.77;98939.00;5112403;28;20727;-57
2022/08/27 07:01:02;;;;;;;22.33;7.63;;;;;;;40.11;29.46;98942.44;5109590;28;20277;-58
2022/08/27 07:03:29;;;;;;;16.73;7.00;;;;;;;40.62;29.37;98951.34;5112335;28;20193;-57
2022/08/27 07:06:04;;;;;;;13.95;6.32;;;;;;;40.51;29.01;98946.84;5112505;28;20689;-58
2022/08/27 07:08:31;;;;;;;21.60;7.38;;;;;;;40.12;29.32;98946.81;5111017;28;20193;-58
2022/08/27 07:10:58;;;;;;;12.00;7.68;;;;;;;40.38;29.33;98948.03;5112230;28;20204;-64
2022/08/27 07:13:25;;;;;;;13.57;6.55;;;;;;;40.80;28.96;98944.78;5112503;28;20602;-65
2022/08/27 07:15:51;;;;;;;13.40;7.68;;;;;;;41.31;27.96;98948.94;5112386;28;20198;-65
2022/08/27 07:18:19;;;;;;;20.15;7.93;;;;;;;41.45;28.35;98946.59;5112663;28;20333;-64
2022/08/27 07:20:46;;;;;;;12.57;6.70;;;;;;;41.50;27.76;98943.94;5111520;28;20670;-64
2022/08/27 07:23:14;;;;;;;13.50;7.38;;;;;;;41.52;27.54;98945.31;5112399;28;20202;-65
2022/08/27 07:25:42;;;;;;;14.30;7.63;;;;;;;41.34;27.68;98940.22;5112307;28;20586;-65
2022/08/27 07:28:13;;;;;;;11.07;7.63;;;;;;;41.31;27.20;98948.94;5112333;28;20198;-64
2022/08/27 07:30:41;;;;;;;15.32;6.80;;;;;;;40.79;27.61;98933.09;5112491;28;20202;-65
2022/08/27 07:33:08;;;;;;;16.15;7.05;;;;;;;40.47;27.96;98941.09;5112302;28;20649;-65
2022/08/27 07:35:35;;;;;;;12.90;6.85;;;;;;;40.71;27.69;98941.69;5112446;28;20202;-65
2022/08/27 07:38:02;;;;;;;28.35;8.15;;;;;;;40.97;27.35;98945.56;5111646;28;20608;-60
2022/08/27 07:40:31;;;;;;;21.00;8.20;;;;;;;40.82;26.35;98937.19;5110613;28;20285;-66
2022/08/27 07:45:45;;;;;;;14.93;6.55;;;;;;;40.63;26.45;98944.84;5110231;28;20583;-67
2022/08/27 07:48:12;;;;;;;13.32;6.32;;;;;;;40.60;27.23;98923.56;5110139;28;20584;-66
2022/08/27 07:50:39;;;;;;;14.50;6.03;;;;;;;41.45;25.53;98947.41;5111964;28;20208;-67
2022/08/27 07:53:06;;;;;;;15.57;6.28;;;;;;;41.48;25.54;98946.09;5111688;28;20284;-66
2022/08/27 07:55:38;;;;;;;13.20;7.10;;;;;;;41.91;25.72;98950.56;5111561;28;20205;-66
2022/08/27 07:58:05;;;;;;;39.88;13.75;;;;;;;42.33;24.76;98956.03;5111700;28;20214;-66
2022/08/27 08:00:32;;;;;;;34.75;9.85;;;;;;;43.02;24.57;98944.94;5111431;28;20198;-66
2022/08/27 08:02:59;;;;;;;20.92;6.20;;;;;;;43.10;23.50;98947.97;5111652;28;20676;-66
2022/08/27 08:05:27;;;;;;;14.75;6.03;;;;;;;43.25;23.56;98949.09;5111479;28;20225;-66
2022/08/27 08:07:54;;;;;;;14.07;6.07;;;;;;;43.06;23.17;98946.88;5111643;28;20193;-65
2022/08/27 08:10:22;;;;;;;19.83;5.78;;;;;;;43.75;22.54;98930.06;5110495;28;20194;-66
2022/08/27 08:12:50;;;;;;;15.48;6.57;;;;;;;43.89;22.37;98946.72;5111349;28;20205;-67
2022/08/27 08:15:18;;;;;;;14.48;6.00;;;;;;;44.00;22.28;98953.84;5111631;28;20677;-66
2022/08/27 08:17:46;;;;;;;17.58;5.97;;;;;;;43.80;22.64;98943.69;5113138;27;20719;-65
2022/08/27 08:20:14;;;;;;;20.98;6.32;;;;;;;44.64;22.02;98946.88;5111282;28;20194;-66
2022/08/27 08:22:42;;;;;;;12.02;5.85;;;;;;;44.57;21.57;98949.91;5111285;28;20280;-66
2022/08/27 08:25:09;;;;;;;13.55;6.38;;;;;;;44.56;21.48;98958.41;5111164;28;20194;-60
2022/08/27 08:27:36;;;;;;;14.40;5.32;;;;;;;44.72;21.48;98946.28;5111086;28;20272;-60
2022/08/27 08:30:05;;;;;;;8.40;4.88;;;;;;;44.68;21.39;98945.22;5111034;28;20202;-60
2022/08/27 08:32:32;;;;;;;12.52;6.05;;;;;;;44.27;21.71;98933.53;5110981;28;20229;-60
2022/08/27 08:34:59;;;;;;;18.27;6.55;;;;;;;44.32;21.37;98939.00;5110938;28;20198;-60
2022/08/27 08:37:26;;;;;;;10.88;4.90;;;;;;;44.12;21.56;98948.09;5111253;28;20618;-67
2022/08/27 08:39:54;;;;;;;14.73;9.63;;;;;;;44.06;21.56;98935.50;5111003;28;20244;-66
2022/08/27 08:42:29;;;;;;;18.42;6.15;;;;;;;44.05;21.61;98926.47;5111021;28;20585;-66
2022/08/27 08:44:59;;;;;;;14.27;5.13;;;;;;;44.46;21.46;98937.38;5110720;28;20593;-66
2022/08/27 08:47:30;;;;;;;16.88;6.70;;;;;;;43.57;21.97;98935.25;5111154;28;20737;-66
2022/08/27 08:50:05;;;;;;;8.32;5.07;;;;;;;43.62;21.92;98936.06;5110888;28;20189;-66
2022/08/27 08:52:44;;;;;;;20.42;5.90;;;;;;;43.25;22.65;98938.19;5110597;28;20190;-66
2022/08/27 08:55:23;;;;;;;17.67;9.32;;;;;;;42.90;23.18;98931.50;5109860;28;20282;-66
2022/08/27 08:57:59;;;;;;;12.95;7.68;;;;;;;42.50;23.30;98936.81;5109797;28;20598;-66
2022/08/27 09:00:27;;;;;;;16.27;5.20;;;;;;;42.34;23.38;98922.22;5110139;28;20233;-65
2022/08/27 09:02:55;;;;;;;21.83;12.75;;;;;;;43.24;23.01;98933.81;5106903;28;20198;-61
2022/08/27 09:05:24;;;;;;;10.90;5.22;;;;;;;42.97;22.86;98937.56;5109247;28;20573;-66
2022/08/27 09:08:01;;;;;;;12.57;5.22;;;;;;;42.74;22.96;98933.38;5109019;28;20194;-66
2022/08/27 09:10:37;;;;;;;11.07;4.47;;;;;;;42.59;23.35;98935.19;5109895;28;20662;-60
2022/08/27 09:13:07;;;;;;;11.90;5.90;;;;;;;42.64;22.70;98937.97;5109110;28;20461;-60
2022/08/27 09:15:36;;;;;;;16.15;7.20;;;;;;;42.24;23.15;98935.81;5106783;28;20613;-60
2022/08/27 09:18:12;;;;;;;12.00;5.97;;;;;;;43.16;22.55;98929.69;5108593;28;20279;-60
2022/08/27 09:20:43;;;;;;;14.80;5.45;;;;;;;43.74;22.02;98935.78;5109884;28;20186;-61
2022/08/27 09:23:18;;;;;;;14.32;4.88;;;;;;;44.11;20.77;98941.81;5110031;28;20288;-59
2022/08/27 09:25:45;;;;;;;13.68;4.45;;;;;;;44.29;20.83;98937.66;5110134;28;20194;-67
2022/08/27 09:30:59;;;;;;;19.65;4.63;;;;;;;44.89;21.00;98938.56;5108966;28;20197;-67
2022/08/27 09:33:28;;;;;;;9.10;4.25;;;;;;;45.78;19.36;98931.94;5108957;28;20737;-67
2022/08/27 09:35:55;;;;;;;8.55;4.78;;;;;;;45.09;20.39;98932.97;5108753;28;20277;-67
2022/08/27 09:38:27;;;;;;;9.68;4.60;;;;;;;45.18;19.95;98930.47;5108645;28;20266;-68
2022/08/27 09:40:59;;;;;;;8.35;4.32;;;;;;;45.20;19.59;98934.56;5107911;28;20198;-59
2022/08/27 09:43:28;;;;;;;9.48;4.10;;;;;;;45.49;19.59;98931.88;5109054;28;20202;-59
2022/08/27 09:45:58;;;;;;;9.38;4.22;;;;;;;43.93;21.25;98925.09;5109280;28;20581;-59
2022/08/27 09:48:30;;;;;;;9.48;4.40;;;;;;;44.56;21.01;98920.91;5109331;28;20665;-59
2022/08/27 09:50:59;;;;;;;10.07;4.63;;;;;;;44.97;21.50;98927.00;5109288;28;20770;-59
2022/08/27 09:53:28;;;;;;;7.43;4.25;;;;;;;45.50;19.80;98935.44;5109271;28;20637;-60
2022/08/27 09:55:59;;;;;;;9.05;4.60;;;;;;;45.08;19.86;98931.31;5108982;28;20200;-58
2022/08/27 09:58:29;;;;;;;13.45;4.57;;;;;;;45.06;20.38;98925.31;5109280;28;20221;-57
2022/08/27 10:01:03;;;;;;;14.15;6.25;;;;;;;44.64;21.59;98922.22;5108504;28;20248;-57
2022/08/27 10:03:31;;;;;;;10.82;5.40;;;;;;;43.70;21.83;98913.63;5106784;28;20650;-58
2022/08/27 10:05:59;;;;;;;10.57;4.53;;;;;;;42.11;22.61;98915.28;5108510;28;20712;-58
2022/08/27 10:08:35;;;;;;;13.10;6.78;;;;;;;40.46;24.64;98898.63;5108198;28;20190;-58
2022/08/27 10:11:06;;;;;;;14.77;5.10;;;;;;;39.39;25.31;98904.31;5108148;28;20190;-58
2022/08/27 10:13:50;;;;;;;9.38;4.63;;;;;;;38.25;27.47;98902.53;5108427;28;20225;-57
2022/08/27 10:16:52;;;;;;;22.90;13.23;;;;;;;37.31;28.21;98894.28;5108711;28;20198;-57
2022/08/27 10:19:33;;;;;;;21.13;4.95;;;;;;;36.50;28.55;98888.47;5105792;28;20232;-63
2022/08/27 10:22:08;;;;;;;17.27;4.45;;;;;;;36.34;27.96;98893.44;5107855;28;20186;-65
2022/08/27 10:24:48;;;;;;;13.98;5.18;;;;;;;36.24;28.70;98892.28;5105850;28;20573;-61
2022/08/27 10:27:27;;;;;;;19.15;5.88;;;;;;;36.38;28.75;98891.09;5108083;28;20185;-66
2022/08/27 10:30:02;;;;;;;15.35;6.03;;;;;;;36.10;29.30;98893.47;5108192;28;20189;-65
2022/08/27 10:32:44;;;;;;;13.77;4.97;;;;;;;35.94;29.67;98898.38;5107887;28;20197;-65
2022/08/27 10:35:20;;;;;;;14.85;5.55;;;;;;;35.80;30.32;98896.84;5107820;28;20218;-65
2022/08/27 10:37:58;;;;;;;12.65;4.88;;;;;;;35.52;29.87;98891.03;5107078;28;20234;-66
2022/08/27 10:40:31;;;;;;;13.48;4.68;;;;;;;35.38;28.88;98868.72;5106616;28;20187;-66
2022/08/27 10:43:18;;;;;;;16.20;4.00;;;;;;;35.23;28.39;98895.97;5109465;28;20195;-65
2022/08/27 10:45:52;;;;;;;13.23;4.40;;;;;;;35.24;28.81;98875.22;5106408;28;20195;-65
2022/08/27 10:48:27;;;;;;;14.23;5.05;;;;;;;35.05;29.14;98898.59;5108377;28;20576;-65
2022/08/27 10:51:04;;;;;;;15.73;4.50;;;;;;;35.03;29.00;98889.88;5104604;28;20713;-63
2022/08/27 10:53:42;;;;;;;9.00;4.40;;;;;;;35.01;29.27;98885.75;5108103;28;20204;-63
2022/08/27 10:56:17;;;;;;;15.25;5.20;;;;;;;34.95;29.49;98892.84;5109972;28;20293;-60
2022/08/27 10:58:58;;;;;;;9.88;4.38;;;;;;;34.98;29.45;98881.63;5111935;28;20274;-59
2022/08/27 11:01:34;;;;;;;10.35;4.93;;;;;;;34.86;29.07;98881.50;5111363;28;20205;-60
2022/08/27 11:04:06;;;;;;;10.95;4.30;;;;;;;34.71;29.80;98877.38;5112955;28;20187;-59
2022/08/27 11:06:38;;;;;;;13.15;4.97;;;;;;;34.77;29.32;98879.22;5112248;28;20194;-59
2022/08/27 11:09:13;;;;;;;20.20;5.43;;;;;;;34.66;28.98;98869.91;5112253;28;20218;-59
2022/08/27 11:11:45;;;;;;;16.23;5.30;;;;;;;34.75;29.26;98875.91;5112059;28;20193;-59
2022/08/27 11:14:23;;;;;;;14.77;5.40;;;;;;;34.54;29.36;98874.31;5110378;28;20282;-58
2022/08/27 11:16:57;;;;;;;15.95;5.05;;;;;;;34.46;29.34;98874.56;5110324;28;20278;-59
2022/08/27 11:19:30;;;;;;;12.38;4.40;;;;;;;34.47;29.06;98878.94;5110860;28;20226;-60
2022/08/27 11:22:07;;;;;;;13.38;5.18;;;;;;;34.42;29.76;98871.50;5112042;28;20198;-59
2022/08/27 11:24:41;;;;;;;11.35;5.03;;;;;;;34.40;29.56;98868.19;5111110;28;20200;-65
2022/08/27 11:27:09;;;;;;;15.88;4.85;;;;;;;34.41;29.56;98869.84;5108990;28;20194;-65
2022/08/27 11:29:46;;;;;;;13.50;4.82;;;;;;;34.31;29.57;98871.34;5111645;28;20194;-66
2022/08/27 11:32:23;;;;;;;12.35;4.50;;;;;;;34.25;29.10;98859.50;5109999;28;20611;-58
2022/08/27 11:34:56;;;;;;;13.75;4.90;;;;;;;34.37;29.34;98862.38;5108308;28;20581;-65
2022/08/27 11:37:39;;;;;;;13.65;5.85;;;;;;;34.18;29.53;98854.13;5109842;28;20288;-65
2022/08/27 11:40:48;;;;;;;18.75;5.95;;;;;;;34.42;29.89;98849.13;5110061;28;20215;-66
2022/08/27 11:43:18;;;;;;;14.15;5.28;;;;;;;34.28;30.08;98836.72;5070579;28;20188;-65
2022/08/27 11:45:55;;;;;;;16.83;5.53;;;;;;;34.47;30.19;98849.28;5111674;28;20187;-58